Royer Lake, Indiana
Current Conditions -  °F | °C
As of 12:55 PM on Saturday 25 Oct 2014 (Local Time) from KIRS Reporting Station
Broken Clouds Broken Clouds  
Wind Chill: 61°   Ceiling: 2200
Heat Index: 61°   Visibility: 10mi
Dew Point: 54°   Wind: 12mph
Humidity: 77%   Direction: 300°WNW
Pressure: 29.89"   Gusts: 16mph
Location:  41.6561°N, 85.3683°W
Report Text: KIRS 251655Z AUTO 30010G14KT 10SM BKN022 16/12 A2989 RMK AO2
Loading
Personal Weather Stations






























Interactive Weather Map
Tropical Storm Tracking
New forecast layout! Learn more

10-Day Weather Forecast

Advertisements
Track Severe Weather on mobile